River Bank, California
Current Conditions -  °F | °C
As of 1:53 AM on Saturday 22 Nov 2014 (Local Time) from KSAC Reporting Station
Light Rain Light Rain  
Wind Chill: 56°   Ceiling: 4100
Heat Index: 56°   Visibility: 6mi
Dew Point: 51°   Wind: 9mph
Humidity: 84%   Direction: 140°SE
Pressure: 30.11"   Gusts: 17mph
Location:  38.5921°N, 121.545°W
Report Text: KSAC 220953Z AUTO 14008G15KT 6SM -RA BKN041 OVC050 13/11 A3011 RMK AO2 RAB32 SLP197 P0000 T01330106
Loading
Personal Weather Stations






























Interactive Weather Map New forecast layout! Learn more

10-Day Weather Forecast

Advertisements
Track Severe Weather on mobile